sensor_id;sensor_type;location;lat;lon;timestamp;pressure;altitude;pressure_sealevel;temperature;humidity
60820;BME280;46641;48.904;9.126;2023-04-08T00:01:41;98846.03;;;14.65;48.82
60820;BME280;46641;48.904;9.126;2023-04-08T00:06:31;98847.03;;;14.64;48.99
60820;BME280;46641;48.904;9.126;2023-04-08T00:11:21;98850.81;;;14.61;49.05
60820;BME280;46641;48.904;9.126;2023-04-08T00:16:12;98851.81;;;14.60;49.04
60820;BME280;46641;48.904;9.126;2023-04-08T00:21:02;98852.13;;;14.57;49.00
60820;BME280;46641;48.904;9.126;2023-04-08T00:25:53;98849.84;;;14.54;49.33
60820;BME280;46641;48.904;9.126;2023-04-08T00:30:43;98855.09;;;14.54;49.10
60820;BME280;46641;48.904;9.126;2023-04-08T00:35:33;98859.69;;;14.52;48.91
60820;BME280;46641;48.904;9.126;2023-04-08T00:40:23;98850.16;;;14.51;49.05
60820;BME280;46641;48.904;9.126;2023-04-08T00:45:14;98863.47;;;14.49;49.05
60820;BME280;46641;48.904;9.126;2023-04-08T00:50:07;98860.16;;;14.47;49.42
60820;BME280;46641;48.904;9.126;2023-04-08T00:54:59;98869.22;;;14.45;49.24
60820;BME280;46641;48.904;9.126;2023-04-08T00:59:50;98877.44;;;14.42;49.09
60820;BME280;46641;48.904;9.126;2023-04-08T01:05:01;98876.63;;;14.41;49.47
60820;BME280;46641;48.904;9.126;2023-04-08T01:10:02;98870.53;;;14.41;49.50
60820;BME280;46641;48.904;9.126;2023-04-08T01:14:59;98875.13;;;14.39;49.47
60820;BME280;46641;48.904;9.126;2023-04-08T01:19:50;98878.09;;;14.36;49.54
60820;BME280;46641;48.904;9.126;2023-04-08T01:24:42;98881.72;;;14.35;49.29
60820;BME280;46641;48.904;9.126;2023-04-08T01:29:34;98880.22;;;14.32;49.49
60820;BME280;46641;48.904;9.126;2023-04-08T01:34:26;98878.41;;;14.33;49.52
60820;BME280;46641;48.904;9.126;2023-04-08T01:39:17;98867.72;;;14.34;49.22
60820;BME280;46641;48.904;9.126;2023-04-08T01:44:11;98867.88;;;14.33;49.27
60820;BME280;46641;48.904;9.126;2023-04-08T01:49:04;98864.59;;;14.31;49.39
60820;BME280;46641;48.904;9.126;2023-04-08T01:53:55;98868.19;;;14.30;49.05
60820;BME280;46641;48.904;9.126;2023-04-08T01:58:49;98870.69;;;14.31;49.42
60820;BME280;46641;48.904;9.126;2023-04-08T02:03:41;98868.53;;;14.26;49.43
60820;BME280;46641;48.904;9.126;2023-04-08T02:08:35;98870.34;;;14.26;49.44
60820;BME280;46641;48.904;9.126;2023-04-08T02:13:26;98870.50;;;14.24;49.29
60820;BME280;46641;48.904;9.126;2023-04-08T02:18:23;98868.88;;;14.23;49.10
60820;BME280;46641;48.904;9.126;2023-04-08T02:23:33;98879.72;;;14.20;49.49
60820;BME280;46641;48.904;9.126;2023-04-08T02:28:27;98884.13;;;14.20;49.38
60820;BME280;46641;48.904;9.126;2023-04-08T02:33:20;98880.06;;;14.17;49.50
60820;BME280;46641;48.904;9.126;2023-04-08T02:38:11;98880.88;;;14.18;49.76
60820;BME280;46641;48.904;9.126;2023-04-08T02:43:01;98880.19;;;14.16;49.52
60820;BME280;46641;48.904;9.126;2023-04-08T02:47:51;98880.19;;;14.16;49.68
60820;BME280;46641;48.904;9.126;2023-04-08T02:52:42;98872.63;;;14.13;49.60
60820;BME280;46641;48.904;9.126;2023-04-08T02:57:34;98872.78;;;14.11;49.45
60820;BME280;46641;48.904;9.126;2023-04-08T03:02:25;98874.59;;;14.11;49.74
60820;BME280;46641;48.904;9.126;2023-04-08T03:07:15;98878.38;;;14.08;49.55
60820;BME280;46641;48.904;9.126;2023-04-08T03:12:05;98876.88;;;14.06;49.69
60820;BME280;46641;48.904;9.126;2023-04-08T03:16:55;98880.50;;;14.05;49.60
60820;BME280;46641;48.904;9.126;2023-04-08T03:21:46;98878.84;;;14.03;49.91
60820;BME280;46641;48.904;9.126;2023-04-08T03:26:36;98882.47;;;14.02;49.95
60820;BME280;46641;48.904;9.126;2023-04-08T03:31:26;98880.00;;;14.01;49.57
60820;BME280;46641;48.904;9.126;2023-04-08T03:36:17;98877.53;;;13.99;49.60
60820;BME280;46641;48.904;9.126;2023-04-08T03:41:07;98888.22;;;13.98;49.84
60820;BME280;46641;48.904;9.126;2023-04-08T03:45:57;98892.00;;;13.95;49.64
60820;BME280;46641;48.904;9.126;2023-04-08T03:50:47;98886.72;;;13.95;49.80
60820;BME280;46641;48.904;9.126;2023-04-08T03:55:38;98888.69;;;13.93;49.97
60820;BME280;46641;48.904;9.126;2023-04-08T04:00:28;98883.59;;;13.92;50.02
60820;BME280;46641;48.904;9.126;2023-04-08T04:05:19;98868.94;;;13.89;49.84
60820;BME280;46641;48.904;9.126;2023-04-08T04:10:09;98872.72;;;13.87;49.70
60820;BME280;46641;48.904;9.126;2023-04-08T04:15:00;98877.16;;;13.86;49.95
60820;BME280;46641;48.904;9.126;2023-04-08T04:19:51;98879.09;;;13.84;49.95
60820;BME280;46641;48.904;9.126;2023-04-08T04:24:45;98881.22;;;13.80;50.05
60820;BME280;46641;48.904;9.126;2023-04-08T04:29:36;98888.31;;;13.80;50.14
60820;BME280;46641;48.904;9.126;2023-04-08T04:34:26;98891.94;;;13.79;50.07
60820;BME280;46641;48.904;9.126;2023-04-08T04:39:16;98893.06;;;13.76;50.07
60820;BME280;46641;48.904;9.126;2023-04-08T04:44:06;98889.75;;;13.74;49.91
60820;BME280;46641;48.904;9.126;2023-04-08T04:48:57;98901.28;;;13.73;50.26
60820;BME280;46641;48.904;9.126;2023-04-08T04:53:47;98905.84;;;13.71;49.89
60820;BME280;46641;48.904;9.126;2023-04-08T04:58:39;98898.13;;;13.70;49.73
60820;BME280;46641;48.904;9.126;2023-04-08T05:03:30;98907.97;;;13.68;50.07
60820;BME280;46641;48.904;9.126;2023-04-08T05:08:20;98913.41;;;13.66;50.23
60820;BME280;46641;48.904;9.126;2023-04-08T05:13:11;98917.16;;;13.64;49.95
60820;BME280;46641;48.904;9.126;2023-04-08T05:18:01;98922.75;;;13.61;50.31
60820;BME280;46641;48.904;9.126;2023-04-08T05:22:51;98924.72;;;13.59;50.10
60820;BME280;46641;48.904;9.126;2023-04-08T05:27:42;98930.13;;;13.57;50.29
60820;BME280;46641;48.904;9.126;2023-04-08T05:32:32;98931.25;;;13.54;50.32
60820;BME280;46641;48.904;9.126;2023-04-08T05:37:22;98945.41;;;13.53;50.09
60820;BME280;46641;48.904;9.126;2023-04-08T05:42:12;98939.31;;;13.53;50.40
60820;BME280;46641;48.904;9.126;2023-04-08T05:47:03;98938.63;;;13.51;50.27
60820;BME280;46641;48.904;9.126;2023-04-08T05:51:53;98943.25;;;13.49;50.30
60820;BME280;46641;48.904;9.126;2023-04-08T05:56:43;98940.75;;;13.47;50.50
60820;BME280;46641;48.904;9.126;2023-04-08T06:01:35;98951.56;;;13.44;50.51
60820;BME280;46641;48.904;9.126;2023-04-08T06:06:25;98962.78;;;13.46;50.68
60820;BME280;46641;48.904;9.126;2023-04-08T06:11:16;98964.59;;;13.46;50.51
60820;BME280;46641;48.904;9.126;2023-04-08T06:16:12;98968.16;;;13.45;50.53
60820;BME280;46641;48.904;9.126;2023-04-08T06:21:03;98972.47;;;13.46;50.79
60820;BME280;46641;48.904;9.126;2023-04-08T06:25:53;98973.44;;;13.45;50.57
60820;BME280;46641;48.904;9.126;2023-04-08T06:30:44;98973.75;;;13.42;50.74
60820;BME280;46641;48.904;9.126;2023-04-08T06:35:34;98977.06;;;13.44;50.46
60820;BME280;46641;48.904;9.126;2023-04-08T06:40:26;98987.06;;;13.40;50.62
60820;BME280;46641;48.904;9.126;2023-04-08T06:45:16;98986.06;;;13.41;50.57
60820;BME280;46641;48.904;9.126;2023-04-08T06:50:07;98984.13;;;13.43;50.30
60820;BME280;46641;48.904;9.126;2023-04-08T06:54:57;98998.91;;;13.44;50.85
60820;BME280;46641;48.904;9.126;2023-04-08T06:59:47;98998.75;;;13.46;50.57
60820;BME280;46641;48.904;9.126;2023-04-08T07:04:37;99001.41;;;13.46;50.43
60820;BME280;46641;48.904;9.126;2023-04-08T07:09:28;98997.41;;;13.42;50.74
60820;BME280;46641;48.904;9.126;2023-04-08T07:14:18;99002.53;;;13.43;50.62
60820;BME280;46641;48.904;9.126;2023-04-08T07:19:09;99006.34;;;13.49;50.77
60820;BME280;46641;48.904;9.126;2023-04-08T07:23:59;98999.28;;;13.49;50.54
60820;BME280;46641;48.904;9.126;2023-04-08T07:28:50;99002.44;;;13.53;50.83
60820;BME280;46641;48.904;9.126;2023-04-08T07:33:41;99005.72;;;13.55;50.71
60820;BME280;46641;48.904;9.126;2023-04-08T07:38:31;99015.91;;;13.58;50.58
60820;BME280;46641;48.904;9.126;2023-04-08T07:43:21;99012.03;;;13.62;50.49
60820;BME280;46641;48.904;9.126;2023-04-08T07:48:12;99017.13;;;13.64;50.28
60820;BME280;46641;48.904;9.126;2023-04-08T07:53:02;99025.38;;;13.69;50.39
60820;BME280;46641;48.904;9.126;2023-04-08T07:57:52;99031.97;;;13.73;50.15
60820;BME280;46641;48.904;9.126;2023-04-08T08:02:43;99039.56;;;13.76;50.12
60820;BME280;46641;48.904;9.126;2023-04-08T08:07:33;99033.31;;;13.77;50.39
60820;BME280;46641;48.904;9.126;2023-04-08T08:12:23;99035.63;;;13.80;50.21
60820;BME280;46641;48.904;9.126;2023-04-08T08:17:14;99037.50;;;13.88;50.05
60820;BME280;46641;48.904;9.126;2023-04-08T08:22:04;99043.59;;;13.88;50.26
60820;BME280;46641;48.904;9.126;2023-04-08T08:26:54;99037.34;;;13.89;50.30
60820;BME280;46641;48.904;9.126;2023-04-08T08:31:47;99045.75;;;13.93;50.00
60820;BME280;46641;48.904;9.126;2023-04-08T08:36:38;99038.53;;;13.95;50.25
60820;BME280;46641;48.904;9.126;2023-04-08T08:41:33;99042.66;;;13.97;50.30
60820;BME280;46641;48.904;9.126;2023-04-08T08:46:24;99056.16;;;14.02;49.96
60820;BME280;46641;48.904;9.126;2023-04-08T08:51:15;99055.22;;;14.12;49.87
60820;BME280;46641;48.904;9.126;2023-04-08T08:56:08;99059.50;;;14.13;49.98
60820;BME280;46641;48.904;9.126;2023-04-08T09:00:58;99062.50;;;14.18;49.54
60820;BME280;46641;48.904;9.126;2023-04-08T09:06:09;99063.16;;;14.20;49.72
60820;BME280;46641;48.904;9.126;2023-04-08T09:11:18;99071.78;;;14.30;49.24
60820;BME280;46641;48.904;9.126;2023-04-08T09:16:12;99069.03;;;14.40;49.26
60820;BME280;46641;48.904;9.126;2023-04-08T09:21:05;99074.19;;;14.49;49.28
60820;BME280;46641;48.904;9.126;2023-04-08T09:26:01;99068.59;;;14.53;49.00
60820;BME280;46641;48.904;9.126;2023-04-08T09:30:56;99069.94;;;14.57;49.05
60820;BME280;46641;48.904;9.126;2023-04-08T09:35:46;99063.88;;;14.64;49.09
60820;BME280;46641;48.904;9.126;2023-04-08T09:40:37;99064.06;;;14.71;49.09
60820;BME280;46641;48.904;9.126;2023-04-08T09:45:29;99068.88;;;14.76;48.74
60820;BME280;46641;48.904;9.126;2023-04-08T09:50:26;99072.84;;;14.88;48.05
60820;BME280;46641;48.904;9.126;2023-04-08T09:55:21;99065.09;;;14.94;48.05
60820;BME280;46641;48.904;9.126;2023-04-08T10:00:13;99070.22;;;14.96;48.70
60820;BME280;46641;48.904;9.126;2023-04-08T10:05:05;99067.09;;;15.01;48.56
60820;BME280;46641;48.904;9.126;2023-04-08T10:09:57;99074.53;;;15.05;48.05
60820;BME280;46641;48.904;9.126;2023-04-08T10:25:33;99065.31;;;15.26;46.76
60820;BME280;46641;48.904;9.126;2023-04-08T10:35:28;99069.78;;;15.33;46.13
60820;BME280;46641;48.904;9.126;2023-04-08T10:40:19;99064.16;;;15.36;47.71
60820;BME280;46641;48.904;9.126;2023-04-08T10:45:09;99065.66;;;15.39;47.66
60820;BME280;46641;48.904;9.126;2023-04-08T10:50:00;99065.34;;;15.42;47.78
60820;BME280;46641;48.904;9.126;2023-04-08T10:54:52;99065.81;;;15.46;47.04
60820;BME280;46641;48.904;9.126;2023-04-08T10:59:42;99064.69;;;15.48;47.30
60820;BME280;46641;48.904;9.126;2023-04-08T11:04:33;99067.81;;;15.52;46.85
60820;BME280;46641;48.904;9.126;2023-04-08T11:09:33;99065.66;;;15.55;45.91
60820;BME280;46641;48.904;9.126;2023-04-08T11:14:24;99068.16;;;15.57;46.67
60820;BME280;46641;48.904;9.126;2023-04-08T11:19:14;99067.81;;;15.60;46.13
60820;BME280;46641;48.904;9.126;2023-04-08T11:24:06;99067.81;;;15.60;45.92
60820;BME280;46641;48.904;9.126;2023-04-08T11:28:59;99060.53;;;15.62;46.09
60820;BME280;46641;48.904;9.126;2023-04-08T11:33:52;99051.63;;;15.63;46.38
60820;BME280;46641;48.904;9.126;2023-04-08T11:38:43;99059.38;;;15.64;46.47
60820;BME280;46641;48.904;9.126;2023-04-08T11:43:34;99048.53;;;15.68;46.20
60820;BME280;46641;48.904;9.126;2023-04-08T11:48:25;99055.31;;;15.70;46.14
60820;BME280;46641;48.904;9.126;2023-04-08T11:53:18;99058.44;;;15.74;46.18
60820;BME280;46641;48.904;9.126;2023-04-08T11:58:08;99057.44;;;15.75;46.12
60820;BME280;46641;48.904;9.126;2023-04-08T12:02:59;99053.97;;;15.74;45.73
60820;BME280;46641;48.904;9.126;2023-04-08T12:07:49;99060.25;;;15.73;45.89
60820;BME280;46641;48.904;9.126;2023-04-08T12:12:39;99059.25;;;15.74;45.77
60820;BME280;46641;48.904;9.126;2023-04-08T12:17:30;99058.44;;;15.74;45.75
60820;BME280;46641;48.904;9.126;2023-04-08T12:22:20;99064.53;;;15.74;45.53
60820;BME280;46641;48.904;9.126;2023-04-08T12:27:11;99061.88;;;15.74;46.41
60820;BME280;46641;48.904;9.126;2023-04-08T12:32:01;99073.94;;;15.77;45.97
60820;BME280;46641;48.904;9.126;2023-04-08T12:36:53;99075.38;;;15.79;46.16
60820;BME280;46641;48.904;9.126;2023-04-08T12:41:45;99066.50;;;15.80;45.66
60820;BME280;46641;48.904;9.126;2023-04-08T12:46:35;99067.66;;;15.78;45.71
60820;BME280;46641;48.904;9.126;2023-04-08T12:51:25;99056.44;;;15.76;45.47
60820;BME280;46641;48.904;9.126;2023-04-08T12:56:15;99060.56;;;15.78;46.24
60820;BME280;46641;48.904;9.126;2023-04-08T13:01:06;99059.41;;;15.81;45.85
60820;BME280;46641;48.904;9.126;2023-04-08T13:05:56;99057.59;;;15.81;46.13
60820;BME280;46641;48.904;9.126;2023-04-08T13:10:48;99059.88;;;15.84;45.65
60820;BME280;46641;48.904;9.126;2023-04-08T13:15:38;99049.19;;;15.86;45.92
60820;BME280;46641;48.904;9.126;2023-04-08T13:20:28;99047.34;;;15.86;46.63
60820;BME280;46641;48.904;9.126;2023-04-08T13:25:19;99050.63;;;15.88;46.26
60820;BME280;46641;48.904;9.126;2023-04-08T13:30:10;99061.53;;;15.94;45.63
60820;BME280;46641;48.904;9.126;2023-04-08T13:35:00;99049.97;;;15.95;45.82
60820;BME280;46641;48.904;9.126;2023-04-08T13:39:51;99048.31;;;15.94;45.40
60820;BME280;46641;48.904;9.126;2023-04-08T13:44:41;99049.31;;;15.93;45.83
60820;BME280;46641;48.904;9.126;2023-04-08T13:49:31;99058.69;;;15.95;46.17
60820;BME280;46641;48.904;9.126;2023-04-08T13:54:22;99047.66;;;16.00;46.05
60820;BME280;46641;48.904;9.126;2023-04-08T13:59:12;99042.03;;;16.03;46.07
60820;BME280;46641;48.904;9.126;2023-04-08T14:04:02;99043.53;;;16.05;45.72
60820;BME280;46641;48.904;9.126;2023-04-08T14:08:52;99050.25;;;16.08;45.74
60820;BME280;46641;48.904;9.126;2023-04-08T14:13:43;99052.41;;;16.12;45.31
60820;BME280;46641;48.904;9.126;2023-04-08T14:18:33;99042.66;;;16.13;45.64
60820;BME280;46641;48.904;9.126;2023-04-08T14:23:23;99052.72;;;16.18;45.56
60820;BME280;46641;48.904;9.126;2023-04-08T14:28:13;99048.59;;;16.15;45.55
60820;BME280;46641;48.904;9.126;2023-04-08T14:33:04;99053.88;;;16.15;44.78
60820;BME280;46641;48.904;9.126;2023-04-08T14:37:54;99049.59;;;16.14;45.38
60820;BME280;46641;48.904;9.126;2023-04-08T14:42:44;99060.81;;;16.16;45.67
60820;BME280;46641;48.904;9.126;2023-04-08T14:47:35;99063.94;;;16.20;45.30
60820;BME280;46641;48.904;9.126;2023-04-08T14:52:25;99057.00;;;16.19;45.83
60820;BME280;46641;48.904;9.126;2023-04-08T14:57:16;99065.56;;;16.21;45.61
60820;BME280;46641;48.904;9.126;2023-04-08T15:02:06;99061.13;;;16.21;45.14
60820;BME280;46641;48.904;9.126;2023-04-08T15:06:56;99067.06;;;16.23;44.69
60820;BME280;46641;48.904;9.126;2023-04-08T15:11:47;99067.88;;;16.24;44.79
60820;BME280;46641;48.904;9.126;2023-04-08T15:16:37;99065.91;;;16.26;44.62
60820;BME280;46641;48.904;9.126;2023-04-08T15:21:27;99078.28;;;16.17;44.71
60820;BME280;46641;48.904;9.126;2023-04-08T15:26:18;99077.63;;;16.15;45.16
60820;BME280;46641;48.904;9.126;2023-04-08T15:31:08;99081.59;;;16.19;44.84
60820;BME280;46641;48.904;9.126;2023-04-08T15:35:59;99084.72;;;16.23;44.64
60820;BME280;46641;48.904;9.126;2023-04-08T15:40:52;99084.53;;;16.24;45.10
60820;BME280;46641;48.904;9.126;2023-04-08T15:45:42;99080.94;;;16.17;45.19
60820;BME280;46641;48.904;9.126;2023-04-08T15:50:37;99090.16;;;16.21;45.27
60820;BME280;46641;48.904;9.126;2023-04-08T15:55:27;99083.91;;;16.22;44.92
60820;BME280;46641;48.904;9.126;2023-04-08T16:00:18;99098.09;;;16.21;44.97
60820;BME280;46641;48.904;9.126;2023-04-08T16:05:08;99101.91;;;16.19;44.86
60820;BME280;46641;48.904;9.126;2023-04-08T16:09:58;99098.41;;;16.18;44.98
60820;BME280;46641;48.904;9.126;2023-04-08T16:14:49;99104.38;;;16.20;44.94
60820;BME280;46641;48.904;9.126;2023-04-08T16:19:40;99111.63;;;16.18;45.15
60820;BME280;46641;48.904;9.126;2023-04-08T16:24:34;99118.75;;;16.09;44.65
60820;BME280;46641;48.904;9.126;2023-04-08T16:29:24;99124.72;;;16.03;45.13
60820;BME280;46641;48.904;9.126;2023-04-08T16:34:16;99126.19;;;16.06;45.46
60820;BME280;46641;48.904;9.126;2023-04-08T16:39:06;99124.88;;;16.10;45.46
60820;BME280;46641;48.904;9.126;2023-04-08T16:43:56;99130.28;;;16.08;45.38
60820;BME280;46641;48.904;9.126;2023-04-08T16:48:46;99140.03;;;16.08;45.43
60820;BME280;46641;48.904;9.126;2023-04-08T16:53:37;99137.56;;;16.06;45.82
60820;BME280;46641;48.904;9.126;2023-04-08T16:58:27;99138.59;;;16.05;45.70
60820;BME280;46641;48.904;9.126;2023-04-08T17:03:17;99145.50;;;16.06;45.68
60820;BME280;46641;48.904;9.126;2023-04-08T17:08:08;99137.91;;;16.03;45.83
60820;BME280;46641;48.904;9.126;2023-04-08T17:12:58;99152.94;;;16.03;45.86
60820;BME280;46641;48.904;9.126;2023-04-08T17:17:48;99154.09;;;16.00;46.06
60820;BME280;46641;48.904;9.126;2023-04-08T17:22:39;99156.88;;;15.99;46.21
60820;BME280;46641;48.904;9.126;2023-04-08T17:27:29;99157.25;;;15.96;46.12
60820;BME280;46641;48.904;9.126;2023-04-08T17:32:19;99164.31;;;15.95;45.76
60820;BME280;46641;48.904;9.126;2023-04-08T17:37:10;99177.00;;;15.92;46.11
60820;BME280;46641;48.904;9.126;2023-04-08T17:42:00;99179.00;;;15.89;46.21
60820;BME280;46641;48.904;9.126;2023-04-08T17:46:51;99178.34;;;15.87;45.95
60820;BME280;46641;48.904;9.126;2023-04-08T17:51:41;99177.84;;;15.84;45.86
60820;BME280;46641;48.904;9.126;2023-04-08T17:56:31;99183.59;;;15.79;46.13
60820;BME280;46641;48.904;9.126;2023-04-08T18:01:22;99183.97;;;15.76;46.31
60820;BME280;46641;48.904;9.126;2023-04-08T18:06:12;99191.88;;;15.76;46.37
60820;BME280;46641;48.904;9.126;2023-04-08T18:11:06;99190.38;;;15.74;46.49
60820;BME280;46641;48.904;9.126;2023-04-08T18:15:56;99190.53;;;15.72;46.44
60820;BME280;46641;48.904;9.126;2023-04-08T18:20:47;99200.44;;;15.70;46.70
60820;BME280;46641;48.904;9.126;2023-04-08T18:25:37;99205.06;;;15.68;46.61
60820;BME280;46641;48.904;9.126;2023-04-08T18:30:27;99216.59;;;15.67;46.48
60820;BME280;46641;48.904;9.126;2023-04-08T18:35:19;99228.41;;;15.63;46.66
60820;BME280;46641;48.904;9.126;2023-04-08T18:40:09;99226.13;;;15.60;46.65
60820;BME280;46641;48.904;9.126;2023-04-08T18:45:00;99232.38;;;15.59;46.84
60820;BME280;46641;48.904;9.126;2023-04-08T18:49:50;99243.94;;;15.58;46.89
60820;BME280;46641;48.904;9.126;2023-04-08T18:54:40;99246.72;;;15.56;47.00
60820;BME280;46641;48.904;9.126;2023-04-08T18:59:31;99246.22;;;15.53;47.03
60820;BME280;46641;48.904;9.126;2023-04-08T19:04:21;99245.06;;;15.55;47.03
60820;BME280;46641;48.904;9.126;2023-04-08T19:09:11;99254.81;;;15.55;46.77
60820;BME280;46641;48.904;9.126;2023-04-08T19:14:03;99251.66;;;15.51;46.68
60820;BME280;46641;48.904;9.126;2023-04-08T19:18:53;99254.75;;;15.47;46.96
60820;BME280;46641;48.904;9.126;2023-04-08T19:23:44;99260.34;;;15.43;46.89
60820;BME280;46641;48.904;9.126;2023-04-08T19:28:36;99268.44;;;15.42;47.34
60820;BME280;46641;48.904;9.126;2023-04-08T19:33:26;99263.66;;;15.37;47.29
60820;BME280;46641;48.904;9.126;2023-04-08T19:38:17;99271.72;;;15.36;47.36
60820;BME280;46641;48.904;9.126;2023-04-08T19:43:07;99263.81;;;15.36;47.29
60820;BME280;46641;48.904;9.126;2023-04-08T19:47:57;99279.81;;;15.34;47.42
60820;BME280;46641;48.904;9.126;2023-04-08T19:52:48;99283.41;;;15.33;47.36
60820;BME280;46641;48.904;9.126;2023-04-08T19:57:38;99280.25;;;15.30;47.38
60820;BME280;46641;48.904;9.126;2023-04-08T20:02:28;99279.44;;;15.29;47.30
60820;BME280;46641;48.904;9.126;2023-04-08T20:07:18;99275.81;;;15.30;47.47
60820;BME280;46641;48.904;9.126;2023-04-08T20:12:09;99280.25;;;15.30;47.36
60820;BME280;46641;48.904;9.126;2023-04-08T20:16:59;99280.44;;;15.28;47.37
60820;BME280;46641;48.904;9.126;2023-04-08T20:21:49;99283.06;;;15.28;47.54
60820;BME280;46641;48.904;9.126;2023-04-08T20:26:39;99287.66;;;15.26;47.63
60820;BME280;46641;48.904;9.126;2023-04-08T20:31:30;99290.16;;;15.28;47.46
60820;BME280;46641;48.904;9.126;2023-04-08T20:36:21;99290.97;;;15.28;47.44
60820;BME280;46641;48.904;9.126;2023-04-08T20:41:20;99287.66;;;15.26;47.22
60820;BME280;46641;48.904;9.126;2023-04-08T20:46:11;99285.03;;;15.26;47.48
60820;BME280;46641;48.904;9.126;2023-04-08T20:51:02;99287.03;;;15.24;47.29
60820;BME280;46641;48.904;9.126;2023-04-08T20:55:52;99289.97;;;15.21;47.63
60820;BME280;46641;48.904;9.126;2023-04-08T21:00:42;99285.66;;;15.20;47.53
60820;BME280;46641;48.904;9.126;2023-04-08T21:05:35;99277.91;;;15.18;47.38
60820;BME280;46641;48.904;9.126;2023-04-08T21:10:26;99284.00;;;15.19;47.45
60820;BME280;46641;48.904;9.126;2023-04-08T21:15:16;99276.59;;;15.14;47.50
60820;BME280;46641;48.904;9.126;2023-04-08T21:20:07;99275.59;;;15.15;47.46
60820;BME280;46641;48.904;9.126;2023-04-08T21:24:57;99277.72;;;15.12;47.70
60820;BME280;46641;48.904;9.126;2023-04-08T21:29:51;99279.38;;;15.13;47.50
60820;BME280;46641;48.904;9.126;2023-04-08T21:34:41;99281.31;;;15.11;47.84
60820;BME280;46641;48.904;9.126;2023-04-08T21:39:32;99285.13;;;15.08;47.44
60820;BME280;46641;48.904;9.126;2023-04-08T21:44:22;99269.63;;;15.05;47.59
60820;BME280;46641;48.904;9.126;2023-04-08T21:49:12;99278.34;;;15.06;47.65
60820;BME280;46641;48.904;9.126;2023-04-08T21:54:03;99282.81;;;15.05;48.13
60820;BME280;46641;48.904;9.126;2023-04-08T21:58:53;99280.31;;;15.04;47.74
60820;BME280;46641;48.904;9.126;2023-04-08T22:03:44;99281.59;;;15.00;47.62
60820;BME280;46641;48.904;9.126;2023-04-08T22:08:34;99285.38;;;14.97;47.89
60820;BME280;46641;48.904;9.126;2023-04-08T22:13:25;99290.81;;;14.95;47.87
60820;BME280;46641;48.904;9.126;2023-04-08T22:18:16;99283.22;;;14.92;47.93
60820;BME280;46641;48.904;9.126;2023-04-08T22:23:06;99275.63;;;14.89;47.60
60820;BME280;46641;48.904;9.126;2023-04-08T22:27:56;99275.13;;;14.86;47.94
60820;BME280;46641;48.904;9.126;2023-04-08T22:32:47;99281.00;;;14.80;48.12
60820;BME280;46641;48.904;9.126;2023-04-08T22:37:37;99279.50;;;14.77;48.00
60820;BME280;46641;48.904;9.126;2023-04-08T22:42:28;99277.19;;;14.74;48.06
60820;BME280;46641;48.904;9.126;2023-04-08T22:47:18;99273.03;;;14.71;48.18
60820;BME280;46641;48.904;9.126;2023-04-08T22:52:08;99278.63;;;14.68;48.25
60820;BME280;46641;48.904;9.126;2023-04-08T22:56:59;99275.47;;;14.65;48.04
60820;BME280;46641;48.904;9.126;2023-04-08T23:01:50;99274.13;;;14.61;48.22
60820;BME280;46641;48.904;9.126;2023-04-08T23:06:41;99271.97;;;14.56;48.26
60820;BME280;46641;48.904;9.126;2023-04-08T23:11:31;99276.38;;;14.56;48.25
60820;BME280;46641;48.904;9.126;2023-04-08T23:16:21;99273.50;;;14.49;48.18
60820;BME280;46641;48.904;9.126;2023-04-08T23:21:12;99274.97;;;14.43;48.39
60820;BME280;46641;48.904;9.126;2023-04-08T23:26:02;99272.63;;;14.40;48.42
60820;BME280;46641;48.904;9.126;2023-04-08T23:30:52;99266.84;;;14.37;48.46
60820;BME280;46641;48.904;9.126;2023-04-08T23:35:42;99275.88;;;14.34;48.47
60820;BME280;46641;48.904;9.126;2023-04-08T23:40:33;99278.13;;;14.29;48.27
60820;BME280;46641;48.904;9.126;2023-04-08T23:45:23;99279.25;;;14.26;48.40
60820;BME280;46641;48.904;9.126;2023-04-08T23:50:13;99285.00;;;14.22;48.49
60820;BME280;46641;48.904;9.126;2023-04-08T23:55:04;99286.28;;;14.18;48.53
60820;BME280;46641;48.904;9.126;2023-04-08T23:59:55;99290.84;;;14.16;48.62
